createdAt,value
2019-02-24T00:00:42.651Z,18.70
2019-02-24T00:03:11.501Z,17.83
2019-02-24T00:05:40.056Z,17.43
2019-02-24T00:08:08.540Z,18.50
2019-02-24T00:10:37.054Z,16.03
2019-02-24T00:13:05.659Z,21.00
2019-02-24T00:15:34.118Z,21.60
2019-02-24T00:18:02.745Z,19.77
2019-02-24T00:20:32.848Z,21.20
2019-02-24T00:23:01.310Z,20.23
2019-02-24T00:25:29.785Z,19.00
2019-02-24T00:28:07.264Z,21.63
2019-02-24T00:30:34.562Z,17.63
2019-02-24T00:33:03.029Z,16.17
2019-02-24T00:35:31.563Z,15.87
2019-02-24T00:38:00.342Z,15.73
2019-02-24T00:40:28.799Z,15.73
2019-02-24T00:42:57.241Z,14.73
2019-02-24T00:45:25.708Z,15.13
2019-02-24T00:47:54.225Z,15.60
2019-02-24T00:50:22.718Z,13.20
2019-02-24T00:52:51.173Z,13.80
2019-02-24T00:55:19.636Z,12.90
2019-02-24T00:57:48.117Z,13.00
2019-02-24T01:00:16.575Z,12.83
2019-02-24T01:02:45.052Z,11.97
2019-02-24T01:05:13.507Z,11.97
2019-02-24T01:07:41.961Z,13.00
2019-02-24T01:10:10.666Z,12.07
2019-02-24T01:12:39.189Z,12.03
2019-02-24T01:15:10.250Z,14.40
2019-02-24T01:17:38.734Z,14.03
2019-02-24T01:20:09.500Z,12.97
2019-02-24T01:22:38.628Z,13.37
2019-02-24T01:25:08.545Z,13.23
2019-02-24T01:27:37.075Z,14.07
2019-02-24T01:30:08.143Z,13.97
2019-02-24T01:32:36.623Z,13.47
2019-02-24T01:35:06.752Z,13.67
2019-02-24T01:37:35.273Z,13.37
2019-02-24T01:40:04.779Z,14.10
2019-02-24T01:42:33.238Z,13.70
2019-02-24T01:45:01.744Z,14.33
2019-02-24T01:47:30.263Z,14.70
2019-02-24T01:49:58.715Z,14.70
2019-02-24T01:52:27.210Z,14.33
2019-02-24T01:54:55.663Z,14.10
2019-02-24T01:57:24.117Z,14.50
2019-02-24T01:59:52.770Z,15.80
2019-02-24T02:02:21.298Z,15.47
2019-02-24T02:04:50.101Z,14.93
2019-02-24T02:07:19.297Z,15.63
2019-02-24T02:09:47.763Z,16.27
2019-02-24T02:12:16.279Z,15.87
2019-02-24T02:14:44.779Z,17.50
2019-02-24T02:17:13.310Z,14.87
2019-02-24T02:19:41.773Z,16.87
2019-02-24T02:22:10.702Z,15.70
2019-02-24T02:24:39.151Z,16.93
2019-02-24T02:27:07.619Z,15.60
2019-02-24T02:29:36.422Z,15.33
2019-02-24T02:32:04.965Z,15.07
2019-02-24T02:34:33.526Z,14.50
2019-02-24T02:37:02.147Z,14.87
2019-02-24T02:39:30.634Z,13.93
2019-02-24T02:41:59.195Z,14.63
2019-02-24T02:44:27.727Z,14.10
2019-02-24T02:46:56.208Z,13.53
2019-02-24T02:49:24.932Z,12.80
2019-02-24T02:51:53.407Z,13.87
2019-02-24T02:54:21.934Z,13.73
2019-02-24T02:56:50.421Z,13.47
2019-02-24T02:59:26.195Z,14.17
2019-02-24T03:01:54.688Z,12.67
2019-02-24T03:04:23.162Z,11.80
2019-02-24T03:06:55.820Z,12.50
2019-02-24T03:09:24.285Z,13.03
2019-02-24T03:11:52.721Z,10.83
2019-02-24T03:14:21.262Z,12.47
2019-02-24T03:16:49.723Z,10.93
2019-02-24T03:19:18.274Z,13.53
2019-02-24T03:21:46.727Z,12.03
2019-02-24T03:24:15.198Z,13.03
2019-02-24T03:26:43.722Z,12.67
2019-02-24T03:29:12.188Z,13.73
2019-02-24T03:31:40.685Z,13.33
2019-02-24T03:34:09.127Z,13.33
2019-02-24T03:36:37.583Z,13.23
2019-02-24T03:39:06.983Z,13.93
2019-02-24T03:41:35.536Z,13.13
2019-02-24T03:44:04.058Z,14.87
2019-02-24T03:46:32.525Z,13.93
2019-02-24T03:49:01.172Z,14.20
2019-02-24T03:51:29.641Z,13.77
2019-02-24T03:53:58.460Z,14.63
2019-02-24T03:56:26.916Z,13.17
2019-02-24T03:58:55.455Z,13.97
2019-02-24T04:01:24.232Z,14.37
2019-02-24T04:03:52.744Z,14.83
2019-02-24T04:06:21.206Z,15.93
2019-02-24T04:08:49.657Z,14.17
2019-02-24T04:11:18.128Z,15.23
2019-02-24T04:13:46.686Z,14.20
2019-02-24T04:16:15.186Z,13.50
2019-02-24T04:18:43.633Z,14.77
2019-02-24T04:21:12.095Z,13.90
2019-02-24T04:23:40.547Z,14.63
2019-02-24T04:26:08.998Z,14.77
2019-02-24T04:28:37.450Z,18.47
2019-02-24T04:31:05.934Z,15.47
2019-02-24T04:33:34.382Z,16.20
2019-02-24T04:36:02.843Z,18.97
2019-02-24T04:38:31.328Z,18.83
2019-02-24T04:40:59.788Z,18.77
2019-02-24T04:43:28.246Z,14.97
2019-02-24T04:45:56.813Z,15.00
2019-02-24T04:48:25.347Z,13.67
2019-02-24T04:50:53.810Z,14.63
2019-02-24T04:53:22.346Z,14.70
2019-02-24T04:55:50.821Z,14.53
2019-02-24T04:58:19.273Z,15.23
2019-02-24T05:00:47.730Z,14.90
2019-02-24T05:03:16.232Z,12.57
2019-02-24T05:05:44.690Z,13.60
2019-02-24T05:08:13.153Z,14.00
2019-02-24T05:10:41.674Z,14.07
2019-02-24T05:13:10.147Z,12.50
2019-02-24T05:15:38.686Z,12.77
2019-02-24T05:18:07.218Z,13.27
2019-02-24T05:20:35.677Z,13.47
2019-02-24T05:23:04.133Z,13.03
2019-02-24T05:25:32.609Z,13.53
2019-02-24T05:28:01.127Z,12.53
2019-02-24T05:30:29.651Z,12.67
2019-02-24T05:32:58.243Z,12.93
2019-02-24T05:35:26.772Z,13.37
2019-02-24T05:37:55.241Z,13.23
2019-02-24T05:40:23.686Z,14.17
2019-02-24T05:42:52.157Z,13.87
2019-02-24T05:45:20.786Z,12.50
2019-02-24T05:47:49.242Z,13.60
2019-02-24T05:50:17.782Z,14.57
2019-02-24T05:52:46.289Z,12.70
2019-02-24T05:55:14.747Z,12.73
2019-02-24T05:57:43.236Z,14.00
2019-02-24T06:00:11.901Z,13.43
2019-02-24T06:02:40.367Z,13.30
2019-02-24T06:05:09.159Z,13.23
2019-02-24T06:07:37.700Z,13.27
2019-02-24T06:10:06.967Z,13.17
2019-02-24T06:12:35.454Z,13.43
2019-02-24T06:15:05.708Z,13.87
2019-02-24T06:17:34.252Z,13.13
2019-02-24T06:20:02.798Z,15.43
2019-02-24T06:22:31.368Z,13.73
2019-02-24T06:24:59.829Z,13.60
2019-02-24T06:27:28.292Z,15.63
2019-02-24T06:30:04.566Z,15.20
2019-02-24T06:32:26.934Z,13.40
2019-02-24T06:34:55.501Z,14.93
2019-02-24T06:37:23.963Z,13.77
2019-02-24T06:39:52.428Z,13.37
2019-02-24T06:42:20.889Z,14.90
2019-02-24T06:44:49.403Z,13.77
2019-02-24T06:47:17.965Z,15.17
2019-02-24T06:49:46.735Z,14.63
2019-02-24T06:52:15.176Z,14.23
2019-02-24T06:54:43.645Z,14.33
2019-02-24T06:57:12.102Z,14.23
2019-02-24T06:59:40.601Z,13.60
2019-02-24T07:02:09.052Z,13.03
2019-02-24T07:04:37.501Z,14.00
2019-02-24T07:07:06.045Z,13.97
2019-02-24T07:09:34.607Z,15.80
2019-02-24T07:12:03.081Z,13.73
2019-02-24T07:14:31.634Z,14.80
2019-02-24T07:17:00.088Z,14.30
2019-02-24T07:19:28.542Z,15.57
2019-02-24T07:21:57.013Z,13.07
2019-02-24T07:24:25.467Z,15.00
2019-02-24T07:26:54.116Z,14.03
2019-02-24T07:29:22.575Z,13.83
2019-02-24T07:31:51.045Z,11.70
2019-02-24T07:34:19.583Z,12.00
2019-02-24T07:36:48.107Z,12.13
2019-02-24T07:39:16.593Z,12.90
2019-02-24T07:41:45.057Z,12.97
2019-02-24T07:44:13.562Z,13.93
2019-02-24T07:46:42.047Z,12.57
2019-02-24T07:49:10.504Z,11.27
2019-02-24T07:51:38.959Z,12.93
2019-02-24T07:54:07.427Z,12.33
2019-02-24T07:56:37.353Z,10.80
2019-02-24T07:59:06.035Z,11.77
2019-02-24T08:01:34.561Z,11.50
2019-02-24T08:04:03.134Z,12.57
2019-02-24T08:06:31.654Z,12.67
2019-02-24T08:09:00.189Z,11.77
2019-02-24T08:11:28.733Z,9.83
2019-02-24T08:13:57.187Z,11.40
2019-02-24T08:16:25.635Z,9.83
2019-02-24T08:18:54.084Z,10.50
2019-02-24T08:21:22.549Z,10.17
2019-02-24T08:23:51.006Z,9.97
2019-02-24T08:26:19.567Z,11.37
2019-02-24T08:28:48.112Z,10.37
2019-02-24T08:31:16.642Z,9.23
2019-02-24T08:33:45.122Z,10.53
2019-02-24T08:36:15.365Z,9.57
2019-02-24T08:38:43.900Z,9.17
2019-02-24T08:41:12.367Z,9.03
2019-02-24T08:43:40.915Z,9.50
2019-02-24T08:46:09.445Z,8.73
2019-02-24T08:48:37.959Z,9.30
2019-02-24T08:51:06.516Z,9.10
2019-02-24T08:53:34.964Z,9.37
2019-02-24T08:56:03.407Z,9.00
2019-02-24T08:58:32.119Z,9.90
2019-02-24T09:01:00.580Z,7.97
2019-02-24T09:03:29.127Z,9.63
2019-02-24T09:05:57.646Z,8.60
2019-02-24T09:08:26.094Z,8.33
2019-02-24T09:10:54.545Z,9.07
2019-02-24T09:13:23.031Z,9.13
2019-02-24T09:15:53.279Z,8.93
2019-02-24T09:18:21.671Z,10.60
2019-02-24T09:20:50.146Z,8.27
2019-02-24T09:23:18.611Z,9.00
2019-02-24T09:25:47.216Z,8.73
2019-02-24T09:28:15.671Z,9.37
2019-02-24T09:30:44.122Z,8.97
2019-02-24T09:33:12.661Z,9.00
2019-02-24T09:35:41.118Z,9.03
2019-02-24T09:38:09.570Z,9.17
2019-02-24T09:40:38.035Z,9.30
2019-02-24T09:43:06.488Z,9.47
2019-02-24T09:45:34.959Z,10.43
2019-02-24T09:48:03.478Z,9.93
2019-02-24T09:50:31.945Z,10.40
2019-02-24T09:53:00.515Z,10.80
2019-02-24T09:55:29.004Z,10.73
2019-02-24T09:57:57.458Z,10.93
2019-02-24T10:00:26.019Z,10.57
2019-02-24T10:02:54.442Z,12.20
2019-02-24T10:05:22.941Z,12.83
2019-02-24T10:07:51.418Z,12.10
2019-02-24T10:10:19.955Z,13.10
2019-02-24T10:12:48.423Z,10.97
2019-02-24T10:15:17.017Z,11.63
2019-02-24T10:17:45.545Z,11.73
2019-02-24T10:20:14.147Z,10.93
2019-02-24T10:22:42.604Z,10.77
2019-02-24T10:25:11.135Z,10.80
2019-02-24T10:27:39.588Z,10.77
2019-02-24T10:30:13.403Z,10.67
2019-02-24T10:32:41.871Z,10.80
2019-02-24T10:35:10.409Z,10.90
2019-02-24T10:37:38.949Z,12.60
2019-02-24T10:40:15.604Z,11.30
2019-02-24T10:42:44.081Z,9.73
2019-02-24T10:45:15.047Z,11.33
2019-02-24T10:47:43.506Z,11.27
2019-02-24T10:50:14.670Z,11.30
2019-02-24T10:52:43.144Z,18.33
2019-02-24T10:55:12.143Z,45.37
2019-02-24T10:57:40.611Z,12.00
2019-02-24T11:00:23.031Z,15.70
2019-02-24T11:02:51.642Z,13.30
2019-02-24T11:05:20.092Z,11.03
2019-02-24T11:07:48.582Z,11.37
2019-02-24T11:10:20.058Z,11.93
2019-02-24T11:12:48.519Z,14.17
2019-02-24T11:15:17.008Z,14.00
2019-02-24T11:17:45.533Z,24.73
2019-02-24T11:20:18.530Z,12.73
2019-02-24T11:22:47.037Z,14.53
2019-02-24T11:25:15.611Z,12.97
2019-02-24T11:27:44.096Z,12.53
2019-02-24T11:30:14.090Z,12.33
2019-02-24T11:32:42.909Z,12.27
2019-02-24T11:35:12.511Z,11.33
2019-02-24T11:37:41.142Z,13.20
2019-02-24T11:40:12.769Z,14.30
2019-02-24T11:42:41.253Z,12.43
2019-02-24T11:45:10.348Z,12.87
2019-02-24T11:47:38.865Z,11.70
2019-02-24T11:50:10.246Z,12.10
2019-02-24T11:52:38.993Z,14.53
2019-02-24T11:55:09.454Z,12.50
2019-02-24T11:57:37.947Z,15.50
2019-02-24T12:00:12.063Z,14.27
2019-02-24T12:02:41.815Z,14.40
2019-02-24T12:05:10.966Z,14.23
2019-02-24T12:07:39.546Z,14.87
2019-02-24T12:10:10.186Z,12.67
2019-02-24T12:12:41.736Z,14.13
2019-02-24T12:15:14.589Z,14.07
2019-02-24T12:17:43.212Z,14.43
2019-02-24T12:20:12.822Z,13.90
2019-02-24T12:22:41.278Z,14.37
2019-02-24T12:25:11.137Z,15.87
2019-02-24T12:27:39.602Z,13.93
2019-02-24T12:30:12.515Z,16.30
2019-02-24T12:32:41.039Z,16.63
2019-02-24T12:35:09.673Z,15.63
2019-02-24T12:37:38.148Z,16.03
2019-02-24T12:40:09.779Z,14.83
2019-02-24T12:42:38.314Z,16.83
2019-02-24T12:45:08.680Z,14.13
2019-02-24T12:47:37.333Z,14.70
2019-02-24T12:50:16.746Z,16.63
2019-02-24T12:52:46.526Z,14.33
2019-02-24T12:55:14.979Z,14.67
2019-02-24T12:57:44.064Z,17.13
2019-02-24T13:00:17.411Z,14.67
2019-02-24T13:02:45.873Z,16.57
2019-02-24T13:05:14.800Z,15.40
2019-02-24T13:07:43.527Z,19.57
2019-02-24T13:10:16.382Z,27.07
2019-02-24T13:12:44.911Z,17.37
2019-02-24T13:15:13.513Z,16.97
2019-02-24T13:17:42.488Z,16.50
2019-02-24T13:20:11.860Z,17.07
2019-02-24T13:22:40.564Z,16.30
2019-02-24T13:25:11.227Z,15.47
2019-02-24T13:27:40.267Z,19.40
2019-02-24T13:30:11.467Z,19.20
2019-02-24T13:32:39.921Z,18.10
2019-02-24T13:35:09.432Z,16.97
2019-02-24T13:37:37.960Z,16.47
2019-02-24T13:40:09.934Z,18.13
2019-02-24T13:42:38.447Z,18.30
2019-02-24T13:45:12.882Z,16.87
2019-02-24T13:47:41.418Z,16.57
2019-02-24T13:50:10.414Z,18.17
2019-02-24T13:52:39.140Z,16.67
2019-02-24T13:55:12.761Z,16.47
2019-02-24T13:57:41.218Z,16.90
2019-02-24T14:00:20.565Z,16.13
2019-02-24T14:02:49.063Z,16.80
2019-02-24T14:05:17.762Z,16.17
2019-02-24T14:07:46.228Z,17.60
2019-02-24T14:10:17.750Z,18.03
2019-02-24T14:12:46.207Z,17.63
2019-02-24T14:15:16.016Z,16.87
2019-02-24T14:17:44.744Z,17.73
2019-02-24T14:20:14.648Z,17.93
2019-02-24T14:22:43.291Z,18.30
2019-02-24T14:25:13.199Z,18.17
2019-02-24T14:27:41.660Z,18.27
2019-02-24T14:30:16.253Z,18.10
2019-02-24T14:32:44.710Z,17.80
2019-02-24T14:35:21.203Z,21.30
2019-02-24T14:37:49.743Z,23.27
2019-02-24T14:40:18.221Z,21.17
2019-02-24T14:42:46.679Z,20.10
2019-02-24T14:45:23.768Z,20.53
2019-02-24T14:47:52.220Z,23.50
2019-02-24T14:50:20.753Z,25.80
2019-02-24T14:52:49.419Z,30.73
2019-02-24T14:55:17.878Z,30.77
2019-02-24T14:57:46.452Z,25.60
2019-02-24T15:00:20.007Z,28.20
2019-02-24T15:02:48.494Z,26.00
2019-02-24T15:05:17.080Z,24.07
2019-02-24T15:07:45.874Z,20.93
2019-02-24T15:10:19.439Z,21.00
2019-02-24T15:12:47.926Z,18.97
2019-02-24T15:15:19.590Z,18.93
2019-02-24T15:17:48.119Z,18.60
2019-02-24T15:20:19.111Z,18.30
2019-02-24T15:22:47.575Z,19.27
2019-02-24T15:25:18.051Z,18.57
2019-02-24T15:27:46.953Z,17.93
2019-02-24T15:30:38.787Z,16.90
2019-02-24T15:33:07.318Z,19.07
2019-02-24T15:35:35.765Z,20.03
2019-02-24T15:38:04.358Z,19.80
2019-02-24T15:40:32.900Z,19.50
2019-02-24T15:43:01.515Z,21.37
2019-02-24T15:45:30.045Z,20.23
2019-02-24T15:47:58.488Z,20.50
2019-02-24T15:50:27.032Z,20.93
2019-02-24T15:52:55.492Z,20.77
2019-02-24T15:55:24.023Z,18.73
2019-02-24T15:57:52.508Z,19.93
2019-02-24T16:00:25.100Z,19.23
2019-02-24T16:03:00.946Z,21.33
2019-02-24T16:05:23.883Z,23.13
2019-02-24T16:07:52.522Z,47.57
2019-02-24T16:10:22.105Z,25.07
2019-02-24T16:12:50.607Z,27.27
2019-02-24T16:15:24.414Z,26.07
2019-02-24T16:17:52.867Z,27.50
2019-02-24T16:20:27.109Z,23.10
2019-02-24T16:22:55.546Z,23.73
2019-02-24T16:25:24.076Z,24.03
2019-02-24T16:27:53.339Z,21.30
2019-02-24T16:30:21.839Z,22.27
2019-02-24T16:32:50.283Z,23.13
2019-02-24T16:35:19.218Z,25.73
2019-02-24T16:37:47.745Z,32.13
2019-02-24T16:40:31.398Z,46.23
2019-02-24T16:43:00.763Z,38.00
2019-02-24T16:45:29.283Z,32.60
2019-02-24T16:47:57.838Z,30.30
2019-02-24T16:50:26.540Z,27.37
2019-02-24T16:52:55.002Z,26.20
2019-02-24T16:55:23.606Z,27.93
2019-02-24T16:57:52.674Z,26.27
2019-02-24T17:00:25.334Z,26.40
2019-02-24T17:02:53.949Z,26.00
2019-02-24T17:05:22.617Z,24.10
2019-02-24T17:07:51.069Z,22.00
2019-02-24T17:10:24.877Z,22.90
2019-02-24T17:12:53.422Z,24.07
2019-02-24T17:15:21.949Z,24.43
2019-02-24T17:17:50.530Z,25.57
2019-02-24T17:20:21.778Z,24.77
2019-02-24T17:22:50.242Z,27.83
2019-02-24T17:25:18.701Z,26.83
2019-02-24T17:27:47.227Z,29.77
2019-02-24T17:30:17.229Z,32.63
2019-02-24T17:32:45.758Z,35.37
2019-02-24T17:35:14.864Z,34.83
2019-02-24T17:37:43.554Z,37.30
2019-02-24T17:40:20.185Z,34.87
2019-02-24T17:42:48.717Z,33.77
2019-02-24T17:45:17.619Z,36.87
2019-02-24T17:47:46.493Z,35.10
2019-02-24T17:50:16.559Z,40.47
2019-02-24T17:52:45.019Z,52.47
2019-02-24T17:55:14.814Z,76.37
2019-02-24T17:57:43.332Z,51.83
2019-02-24T18:00:22.600Z,73.50
2019-02-24T18:02:51.138Z,53.77
2019-02-24T18:05:19.667Z,38.20
2019-02-24T18:07:48.177Z,42.53
2019-02-24T18:10:16.707Z,50.33
2019-02-24T18:12:45.264Z,41.67
2019-02-24T18:15:13.843Z,38.10
2019-02-24T18:17:42.339Z,41.33
2019-02-24T18:20:13.714Z,36.20
2019-02-24T18:22:42.184Z,34.93
2019-02-24T18:25:12.584Z,35.63
2019-02-24T18:27:41.447Z,35.60
2019-02-24T18:30:25.065Z,31.03
2019-02-24T18:32:53.894Z,31.33
2019-02-24T18:35:22.475Z,33.93
2019-02-24T18:37:51.029Z,31.80
2019-02-24T18:40:19.555Z,31.33
2019-02-24T18:42:48.030Z,30.37
2019-02-24T18:45:16.843Z,33.13
2019-02-24T18:47:45.368Z,33.43
2019-02-24T18:50:18.232Z,31.27
2019-02-24T18:52:46.750Z,32.20
2019-02-24T18:55:15.205Z,33.07
2019-02-24T18:57:43.688Z,32.57
2019-02-24T19:00:19.978Z,31.37
2019-02-24T19:02:48.585Z,33.93
2019-02-24T19:05:17.651Z,35.27
2019-02-24T19:07:46.196Z,36.03
2019-02-24T19:10:22.225Z,31.50
2019-02-24T19:12:50.807Z,29.97
2019-02-24T19:15:21.298Z,29.83
2019-02-24T19:17:49.782Z,29.87
2019-02-24T19:20:20.218Z,29.33
2019-02-24T19:22:48.816Z,30.67
2019-02-24T19:25:17.510Z,31.00
2019-02-24T19:27:46.336Z,32.07
2019-02-24T19:30:19.667Z,28.83
2019-02-24T19:32:48.367Z,30.73
2019-02-24T19:35:18.233Z,28.10
2019-02-24T19:37:46.740Z,26.80
2019-02-24T19:40:20.282Z,25.87
2019-02-24T19:42:48.943Z,24.43
2019-02-24T19:45:24.730Z,24.67
2019-02-24T19:47:53.271Z,22.87
2019-02-24T19:50:22.043Z,23.20
2019-02-24T19:52:50.594Z,22.77
2019-02-24T19:55:19.359Z,23.47
2019-02-24T19:57:47.827Z,23.83
2019-02-24T20:00:26.309Z,24.13
2019-02-24T20:02:54.867Z,22.53
2019-02-24T20:05:23.702Z,24.83
2019-02-24T20:07:52.174Z,23.87
2019-02-24T20:10:26.194Z,23.43
2019-02-24T20:12:54.931Z,23.80
2019-02-24T20:15:23.558Z,24.00
2019-02-24T20:17:52.025Z,21.90
2019-02-24T20:20:20.555Z,24.10
2019-02-24T20:22:49.022Z,22.43
2019-02-24T20:25:20.252Z,21.53
2019-02-24T20:27:48.863Z,22.73
2019-02-24T20:30:20.124Z,23.97
2019-02-24T20:32:48.615Z,36.33
2019-02-24T20:35:17.154Z,34.70
2019-02-24T20:37:45.737Z,38.27
2019-02-24T20:40:14.285Z,38.17
2019-02-24T20:42:42.747Z,35.40
2019-02-24T20:45:24.193Z,35.47
2019-02-24T20:47:52.984Z,27.30
2019-02-24T20:50:26.415Z,25.07
2019-02-24T20:52:54.944Z,24.10
2019-02-24T20:55:23.420Z,25.53
2019-02-24T20:57:51.883Z,24.90
2019-02-24T21:00:32.243Z,23.90
2019-02-24T21:03:01.526Z,23.07
2019-02-24T21:05:31.173Z,22.67
2019-02-24T21:07:59.655Z,21.83
2019-02-24T21:10:28.119Z,21.73
2019-02-24T21:12:56.579Z,23.50
2019-02-24T21:15:25.061Z,21.43
2019-02-24T21:17:53.673Z,23.63
2019-02-24T21:20:25.074Z,22.63
2019-02-24T21:22:53.530Z,21.97
2019-02-24T21:25:22.053Z,23.30
2019-02-24T21:27:50.543Z,23.63
2019-02-24T21:30:19.619Z,22.20
2019-02-24T21:32:48.306Z,24.63
2019-02-24T21:35:17.479Z,22.83
2019-02-24T21:37:46.562Z,23.83
2019-02-24T21:40:17.126Z,22.20
2019-02-24T21:42:45.712Z,20.53
2019-02-24T21:45:20.202Z,21.57
2019-02-24T21:47:48.676Z,21.13
2019-02-24T21:50:18.302Z,20.83
2019-02-24T21:52:46.757Z,21.53
2019-02-24T21:55:15.615Z,21.70
2019-02-24T21:57:44.138Z,22.10
2019-02-24T22:00:15.806Z,21.63
2019-02-24T22:02:44.454Z,21.87
2019-02-24T22:05:13.646Z,23.33
2019-02-24T22:07:42.379Z,22.53
2019-02-24T22:10:13.138Z,24.67
2019-02-24T22:12:41.588Z,25.20
2019-02-24T22:15:16.411Z,22.87
2019-02-24T22:17:44.943Z,24.83
2019-02-24T22:20:15.310Z,25.30
2019-02-24T22:22:44.322Z,24.90
2019-02-24T22:25:14.203Z,23.20
2019-02-24T22:27:42.963Z,24.70
2019-02-24T22:30:16.829Z,21.80
2019-02-24T22:32:45.428Z,25.20
2019-02-24T22:35:14.608Z,23.50
2019-02-24T22:37:43.148Z,23.87
2019-02-24T22:40:13.120Z,24.53
2019-02-24T22:42:41.799Z,23.67
2019-02-24T22:45:17.014Z,23.23
2019-02-24T22:47:46.060Z,20.60
2019-02-24T22:50:15.562Z,20.73
2019-02-24T22:52:44.554Z,19.93
2019-02-24T22:55:14.776Z,20.80
2019-02-24T22:57:43.304Z,18.93
2019-02-24T23:00:53.936Z,20.70
2019-02-24T23:03:27.767Z,18.70
2019-02-24T23:05:56.641Z,18.90
2019-02-24T23:08:25.171Z,18.63
2019-02-24T23:10:53.641Z,19.43
2019-02-24T23:13:22.139Z,19.20
2019-02-24T23:15:50.721Z,19.00
2019-02-24T23:18:19.256Z,19.73
2019-02-24T23:20:47.789Z,19.27
2019-02-24T23:23:16.249Z,19.20
2019-02-24T23:25:44.696Z,19.20
2019-02-24T23:28:13.144Z,20.60
2019-02-24T23:30:41.625Z,19.17
2019-02-24T23:33:10.277Z,18.83
2019-02-24T23:35:38.730Z,18.97
2019-02-24T23:38:07.189Z,20.23
2019-02-24T23:40:35.646Z,19.10
2019-02-24T23:43:04.671Z,19.57
2019-02-24T23:45:33.158Z,19.73
2019-02-24T23:48:01.620Z,21.03
2019-02-24T23:50:30.069Z,21.00
2019-02-24T23:52:58.568Z,19.70
2019-02-24T23:55:27.027Z,20.00
2019-02-24T23:57:55.485Z,18.57
